createdAt,value
2023-04-18T00:01:14.305Z,97244.03
2023-04-18T00:03:42.224Z,97243.22
2023-04-18T00:06:10.211Z,97239.69
2023-04-18T00:08:48.981Z,97239.84
2023-04-18T00:11:16.820Z,97246.38
2023-04-18T00:13:47.094Z,97236.14
2023-04-18T00:16:15.029Z,97245.75
2023-04-18T00:18:42.753Z,97240.16
2023-04-18T00:21:10.648Z,97246.08
2023-04-18T00:23:40.021Z,97240.72
2023-04-18T00:26:07.799Z,97247.66
2023-04-18T00:28:35.399Z,97244.91
2023-04-18T00:31:04.037Z,97248.53
2023-04-18T00:33:33.719Z,97243.66
2023-04-18T00:36:01.466Z,97239.33
2023-04-18T00:38:29.316Z,97235.53
2023-04-18T00:40:57.078Z,97234.20
2023-04-18T00:43:25.049Z,97233.57
2023-04-18T00:45:52.856Z,97227.35
2023-04-18T00:48:20.856Z,97230.27
2023-04-18T00:50:48.889Z,97232.80
2023-04-18T00:53:16.853Z,97236.72
2023-04-18T00:55:44.726Z,97224.36
2023-04-18T00:58:12.574Z,97220.72
2023-04-18T01:00:42.113Z,97221.42
2023-04-18T01:03:13.692Z,97220.02
2023-04-18T01:08:11.153Z,97211.00
2023-04-18T01:10:38.930Z,97210.67
2023-04-18T01:13:18.879Z,97212.91
2023-04-18T01:15:49.821Z,97210.52
2023-04-18T01:18:17.985Z,97207.38
2023-04-18T01:20:51.261Z,97212.52
2023-04-18T01:23:21.006Z,97211.81
2023-04-18T01:25:49.004Z,97209.20
2023-04-18T01:28:24.068Z,97208.19
2023-04-18T01:30:51.941Z,97211.17
2023-04-18T01:33:19.811Z,97212.84
2023-04-18T01:35:49.271Z,97207.78
2023-04-18T01:38:16.899Z,97204.88
2023-04-18T01:40:44.754Z,97202.59
2023-04-18T01:43:12.391Z,97206.13
2023-04-18T01:45:40.384Z,97200.84
2023-04-18T01:48:09.758Z,97202.28
2023-04-18T01:50:37.675Z,97200.38
2023-04-18T01:53:05.664Z,97203.63
2023-04-18T01:55:33.459Z,97206.86
2023-04-18T01:58:01.159Z,97198.07
2023-04-18T02:00:29.012Z,97198.14
2023-04-18T02:02:59.377Z,97199.55
2023-04-18T02:05:27.273Z,97202.01
2023-04-18T02:07:54.779Z,97201.22
2023-04-18T02:10:23.144Z,97201.85
2023-04-18T02:12:50.895Z,97196.56
2023-04-18T02:15:19.222Z,97200.42
2023-04-18T02:17:48.572Z,97199.88
2023-04-18T02:20:16.438Z,97199.23
2023-04-18T02:22:44.378Z,97203.84
2023-04-18T02:25:12.049Z,97196.82
2023-04-18T02:27:40.454Z,97196.98
2023-04-18T02:30:09.325Z,97208.87
2023-04-18T02:32:37.165Z,97209.48
2023-04-18T02:35:05.669Z,97206.97
2023-04-18T02:37:33.317Z,97208.92
2023-04-18T02:40:04.529Z,97210.09
2023-04-18T02:42:34.647Z,97212.90
2023-04-18T02:45:04.342Z,97214.07
2023-04-18T02:47:40.514Z,97217.36
2023-04-18T02:50:03.217Z,97213.50
2023-04-18T02:52:31.463Z,97215.05
2023-04-18T02:55:00.876Z,97216.27
2023-04-18T02:57:30.415Z,97213.75
2023-04-18T03:00:18.367Z,97218.98
2023-04-18T03:03:05.091Z,97217.53
2023-04-18T03:05:40.371Z,97224.36
2023-04-18T03:08:11.543Z,97221.86
2023-04-18T03:10:40.204Z,97219.70
2023-04-18T03:13:11.051Z,97217.69
2023-04-18T03:15:39.479Z,97215.70
2023-04-18T03:18:12.130Z,97212.11
2023-04-18T03:20:40.602Z,97208.77
2023-04-18T03:23:11.849Z,97218.26
2023-04-18T03:25:39.649Z,97214.85
2023-04-18T03:28:07.194Z,97216.19
2023-04-18T03:30:36.583Z,97217.76
2023-04-18T03:33:04.833Z,97217.26
2023-04-18T03:35:33.185Z,97223.47
2023-04-18T03:38:02.722Z,97218.91
2023-04-18T03:40:34.156Z,97222.38
2023-04-18T03:43:03.752Z,97220.25
2023-04-18T03:45:31.949Z,97225.36
2023-04-18T03:48:03.028Z,97225.36
2023-04-18T03:50:32.008Z,97229.42
2023-04-18T03:53:00.797Z,97230.89
2023-04-18T03:55:31.946Z,97233.84
2023-04-18T03:57:59.572Z,97234.63
2023-04-18T04:00:29.122Z,97238.64
2023-04-18T04:03:03.375Z,97236.75
2023-04-18T04:05:31.350Z,97239.38
2023-04-18T04:07:59.766Z,97240.11
2023-04-18T04:10:33.701Z,97238.78
2023-04-18T04:13:01.627Z,97240.72
2023-04-18T04:15:29.726Z,97246.56
2023-04-18T04:17:59.348Z,97237.67
2023-04-18T04:20:27.299Z,97241.69
2023-04-18T04:22:58.484Z,97251.22
2023-04-18T04:25:29.557Z,97250.07
2023-04-18T04:28:00.377Z,97249.84
2023-04-18T04:31:01.741Z,97253.55
2023-04-18T04:33:31.501Z,97254.67
2023-04-18T04:36:02.584Z,97258.59
2023-04-18T04:38:31.426Z,97257.55
2023-04-18T04:41:23.707Z,97255.16
2023-04-18T04:43:53.371Z,97256.00
2023-04-18T04:46:29.065Z,97259.08
2023-04-18T04:48:57.315Z,97254.51
2023-04-18T04:51:27.527Z,97255.17
2023-04-18T04:53:55.928Z,97253.06
2023-04-18T04:56:24.021Z,97253.62
2023-04-18T04:58:53.617Z,97256.02
2023-04-18T05:01:26.205Z,97253.77
2023-04-18T05:03:54.443Z,97254.42
2023-04-18T05:06:22.791Z,97254.45
2023-04-18T05:08:50.972Z,97254.48
2023-04-18T05:11:19.026Z,97253.36
2023-04-18T05:13:46.682Z,97250.89
2023-04-18T05:16:14.502Z,97254.03
2023-04-18T05:18:42.338Z,97255.11
2023-04-18T05:21:10.599Z,97254.66
2023-04-18T05:23:38.216Z,97264.63
2023-04-18T05:26:06.299Z,97256.22
2023-04-18T05:28:34.045Z,97254.66
2023-04-18T05:31:02.050Z,97258.97
2023-04-18T05:33:31.261Z,97257.84
2023-04-18T05:35:59.608Z,97252.53
2023-04-18T05:38:27.586Z,97260.87
2023-04-18T05:40:56.598Z,97256.24
2023-04-18T05:43:24.549Z,97258.69
2023-04-18T05:45:53.714Z,97254.09
2023-04-18T05:48:24.723Z,97257.22
2023-04-18T05:50:52.535Z,97256.48
2023-04-18T05:53:20.461Z,97254.95
2023-04-18T05:55:48.460Z,97255.42
2023-04-18T05:58:16.284Z,97257.37
2023-04-18T06:00:47.847Z,97264.47
2023-04-18T06:03:15.893Z,97266.45
2023-04-18T06:05:43.899Z,97260.56
2023-04-18T06:08:13.253Z,97255.09
2023-04-18T06:10:41.190Z,97250.50
2023-04-18T06:13:10.810Z,97256.17
2023-04-18T06:15:38.900Z,97250.89
2023-04-18T06:18:07.137Z,97257.34
2023-04-18T06:20:35.253Z,97252.22
2023-04-18T06:23:03.157Z,97253.30
2023-04-18T06:25:31.139Z,97249.78
2023-04-18T06:28:01.087Z,97250.70
2023-04-18T06:30:29.029Z,97252.30
2023-04-18T06:32:57.270Z,97248.86
2023-04-18T06:35:26.631Z,97248.70
2023-04-18T06:37:54.639Z,97248.77
2023-04-18T06:40:22.631Z,97238.74
2023-04-18T06:42:51.852Z,97238.48
2023-04-18T06:45:23.538Z,97238.88
2023-04-18T06:47:52.493Z,97245.80
2023-04-18T06:50:20.302Z,97236.50
2023-04-18T06:52:48.114Z,97237.92
2023-04-18T06:55:15.701Z,97241.02
2023-04-18T06:57:43.851Z,97236.23
2023-04-18T07:00:14.714Z,97239.03
2023-04-18T07:02:42.967Z,97227.97
2023-04-18T07:05:10.719Z,97229.69
2023-04-18T07:07:40.468Z,97239.72
2023-04-18T07:10:12.876Z,97236.19
2023-04-18T07:13:01.206Z,97243.55
2023-04-18T07:15:35.789Z,97240.30
2023-04-18T07:18:03.939Z,97240.08
2023-04-18T07:20:33.856Z,97239.58
2023-04-18T07:23:04.305Z,97247.97
2023-04-18T07:25:33.919Z,97244.62
2023-04-18T07:28:02.234Z,97249.22
2023-04-18T07:30:49.861Z,97244.30
2023-04-18T07:33:17.990Z,97240.26
2023-04-18T07:35:51.100Z,97241.96
2023-04-18T07:38:18.878Z,97244.69
2023-04-18T07:40:46.851Z,97242.36
2023-04-18T07:43:15.452Z,97247.47
2023-04-18T07:45:44.041Z,97244.09
2023-04-18T07:48:12.760Z,97246.77
2023-04-18T07:50:40.650Z,97235.48
2023-04-18T07:53:09.866Z,97241.39
2023-04-18T07:55:37.797Z,97239.91
2023-04-18T07:58:06.199Z,97237.22
2023-04-18T08:00:39.504Z,97231.26
2023-04-18T08:03:10.010Z,97231.91
2023-04-18T08:05:43.197Z,97231.33
2023-04-18T08:08:13.994Z,97233.38
2023-04-18T08:10:45.243Z,97231.27
2023-04-18T08:13:19.961Z,97233.61
2023-04-18T08:15:48.282Z,97230.71
2023-04-18T08:18:19.784Z,97227.78
2023-04-18T08:20:47.812Z,97233.45
2023-04-18T08:23:15.577Z,97234.07
2023-04-18T08:25:43.393Z,97238.12
2023-04-18T08:28:13.240Z,97237.51
2023-04-18T08:30:42.119Z,97237.72
2023-04-18T08:33:10.203Z,97235.39
2023-04-18T08:35:39.097Z,97235.18
2023-04-18T08:38:11.919Z,97229.72
2023-04-18T08:40:39.821Z,97237.10
2023-04-18T08:43:09.214Z,97234.14
2023-04-18T08:45:38.101Z,97239.80
2023-04-18T08:48:07.221Z,97238.06
2023-04-18T08:50:35.586Z,97237.47
2023-04-18T08:53:03.072Z,97236.88
2023-04-18T08:55:35.001Z,97243.22
2023-04-18T08:58:06.136Z,97235.23
2023-04-18T09:00:38.755Z,97235.36
2023-04-18T09:03:07.012Z,97238.24
2023-04-18T09:05:35.630Z,97229.06
2023-04-18T09:08:21.088Z,97229.31
2023-04-18T09:10:53.099Z,97229.30
2023-04-18T09:13:43.655Z,97230.12
2023-04-18T09:16:12.796Z,97228.09
2023-04-18T09:18:42.273Z,97225.27
2023-04-18T09:21:20.164Z,97216.95
2023-04-18T09:23:49.872Z,97216.27
2023-04-18T09:26:36.263Z,97214.77
2023-04-18T09:29:46.153Z,97220.43
2023-04-18T09:32:30.195Z,97216.16
2023-04-18T09:35:13.710Z,97216.14
2023-04-18T09:37:49.808Z,97215.72
2023-04-18T09:40:20.172Z,97217.64
2023-04-18T09:42:48.245Z,97215.08
2023-04-18T09:45:16.404Z,97211.85
2023-04-18T09:47:44.540Z,97209.59
2023-04-18T09:53:52.145Z,97210.98
2023-04-18T09:56:39.134Z,97211.82
2023-04-18T09:59:27.045Z,97211.15
2023-04-18T10:02:24.950Z,97207.50
2023-04-18T10:05:20.966Z,97208.78
2023-04-18T10:07:55.387Z,97210.70
2023-04-18T10:10:28.340Z,97216.25
2023-04-18T10:12:59.465Z,97219.31
2023-04-18T10:15:29.693Z,97208.45
2023-04-18T10:18:06.411Z,97214.31
2023-04-18T10:20:54.286Z,97207.28
2023-04-18T10:23:40.716Z,97209.92
2023-04-18T10:26:11.139Z,97211.13
2023-04-18T10:28:59.322Z,97213.18
2023-04-18T10:31:47.013Z,97212.98
2023-04-18T10:34:23.325Z,97216.48
2023-04-18T10:37:06.700Z,97217.02
2023-04-18T10:39:58.378Z,97213.57
2023-04-18T10:42:54.367Z,97210.81
2023-04-18T10:45:30.825Z,97212.84
2023-04-18T10:48:25.429Z,97206.12
2023-04-18T10:51:17.268Z,97211.44
2023-04-18T10:53:57.733Z,97208.45
2023-04-18T10:56:27.454Z,97212.13
2023-04-18T10:58:58.118Z,97204.97
2023-04-18T11:01:32.435Z,97204.95
2023-04-18T11:04:00.658Z,97209.98
2023-04-18T11:06:30.773Z,97209.91
2023-04-18T11:09:13.212Z,97208.16
2023-04-18T11:11:42.100Z,97205.83
2023-04-18T11:14:10.752Z,97201.98
2023-04-18T11:16:40.636Z,97204.57
2023-04-18T11:19:21.307Z,97199.84
2023-04-18T11:21:49.556Z,97204.91
2023-04-18T11:24:24.357Z,97203.43
2023-04-18T11:26:55.210Z,97207.53
2023-04-18T11:29:23.150Z,97192.91
2023-04-18T11:31:58.321Z,97203.45
2023-04-18T11:34:31.161Z,97205.84
2023-04-18T11:36:59.868Z,97199.25
2023-04-18T11:39:28.136Z,97196.19
2023-04-18T11:41:57.658Z,97201.27
2023-04-18T11:44:26.619Z,97196.59
2023-04-18T11:46:54.912Z,97186.48
2023-04-18T11:49:32.969Z,97191.14
2023-04-18T11:52:03.643Z,97193.87
2023-04-18T11:54:43.760Z,97188.41
2023-04-18T11:57:28.527Z,97194.02
2023-04-18T12:00:00.651Z,97187.17
2023-04-18T12:02:45.730Z,97192.20
2023-04-18T12:05:27.346Z,97187.55
2023-04-18T12:07:56.203Z,97183.70
2023-04-18T12:10:28.025Z,97174.42
2023-04-18T12:13:00.057Z,97181.99
2023-04-18T12:15:29.647Z,97175.61
2023-04-18T12:18:04.313Z,97175.03
2023-04-18T12:20:51.144Z,97172.47
2023-04-18T12:23:40.554Z,97175.97
2023-04-18T12:26:17.096Z,97175.19
2023-04-18T12:28:47.589Z,97170.25
2023-04-18T12:31:15.701Z,97174.58
2023-04-18T12:33:43.592Z,97178.74
2023-04-18T12:36:11.463Z,97170.22
2023-04-18T12:38:39.559Z,97172.20
2023-04-18T12:41:07.539Z,97173.87
2023-04-18T12:43:35.532Z,97170.36
2023-04-18T12:46:03.551Z,97177.95
2023-04-18T12:48:31.312Z,97177.56
2023-04-18T12:50:59.251Z,97169.48
2023-04-18T12:53:27.052Z,97176.27
2023-04-18T12:55:54.912Z,97166.37
2023-04-18T12:58:22.664Z,97174.69
2023-04-18T13:00:54.250Z,97167.55
2023-04-18T13:03:29.804Z,97167.27
2023-04-18T13:06:06.195Z,97166.94
2023-04-18T13:08:50.743Z,97163.47
2023-04-18T13:11:28.789Z,97161.52
2023-04-18T13:14:00.395Z,97161.83
2023-04-18T13:16:31.101Z,97162.30
2023-04-18T13:18:58.965Z,97158.76
2023-04-18T13:21:27.045Z,97157.16
2023-04-18T13:23:55.043Z,97162.44
2023-04-18T13:26:22.794Z,97158.91
2023-04-18T13:28:51.160Z,97157.41
2023-04-18T13:31:19.205Z,97159.86
2023-04-18T13:33:47.021Z,97159.22
2023-04-18T13:36:15.075Z,97160.39
2023-04-18T13:38:44.948Z,97154.23
2023-04-18T13:41:17.342Z,97155.59
2023-04-18T13:43:49.572Z,97156.72
2023-04-18T13:46:28.208Z,97156.91
2023-04-18T13:48:56.570Z,97155.89
2023-04-18T13:51:25.319Z,97153.28
2023-04-18T13:53:56.062Z,97147.81
2023-04-18T13:56:24.387Z,97149.72
2023-04-18T13:58:52.613Z,97154.06
2023-04-18T14:01:25.574Z,97149.27
2023-04-18T14:03:54.100Z,97145.55
2023-04-18T14:06:22.539Z,97147.81
2023-04-18T14:08:50.924Z,97147.45
2023-04-18T14:11:23.660Z,97145.19
2023-04-18T14:13:51.719Z,97146.64
2023-04-18T14:16:19.813Z,97145.37
2023-04-18T14:18:47.880Z,97139.01
2023-04-18T14:21:15.995Z,97144.70
2023-04-18T14:23:47.356Z,97145.70
2023-04-18T14:26:16.238Z,97139.20
2023-04-18T14:28:48.006Z,97137.67
2023-04-18T14:31:16.493Z,97148.94
2023-04-18T14:33:44.511Z,97148.00
2023-04-18T14:36:14.629Z,97148.78
2023-04-18T14:38:42.746Z,97139.59
2023-04-18T14:41:10.764Z,97146.28
2023-04-18T14:43:38.792Z,97146.19
2023-04-18T14:46:16.851Z,97146.91
2023-04-18T14:48:46.635Z,97143.09
2023-04-18T14:51:17.277Z,97145.35
2023-04-18T14:53:45.614Z,97148.81
2023-04-18T14:56:14.909Z,97147.19
2023-04-18T14:58:43.253Z,97139.55
2023-04-18T15:01:12.425Z,97141.97
2023-04-18T15:03:42.275Z,97145.39
2023-04-18T15:06:27.500Z,97154.04
2023-04-18T17:40:11.422Z,97221.72
2023-04-18T17:42:39.545Z,97223.83
2023-04-18T17:45:09.184Z,97224.96
2023-04-18T17:47:37.054Z,97224.39
2023-04-18T17:50:06.703Z,97227.54
2023-04-18T17:52:34.435Z,97226.76
2023-04-18T17:55:09.969Z,97232.48
2023-04-18T17:57:40.443Z,97227.20
2023-04-18T18:00:11.031Z,97234.04
2023-04-18T18:02:44.913Z,97242.00
2023-04-18T18:05:16.135Z,97240.87
2023-04-18T18:07:46.536Z,97244.13
2023-04-18T18:10:21.905Z,97238.30
2023-04-18T18:12:50.131Z,97243.23
2023-04-18T18:15:18.447Z,97242.76
2023-04-18T18:17:49.304Z,97241.20
2023-04-18T18:20:18.710Z,97248.27
2023-04-18T18:22:46.803Z,97251.84
2023-04-18T18:25:15.489Z,97246.02
2023-04-18T18:27:43.896Z,97243.64
2023-04-18T18:30:11.898Z,97240.17
2023-04-18T18:32:40.157Z,97247.02
2023-04-18T18:35:09.273Z,97242.20
2023-04-18T18:37:40.582Z,97238.73
2023-04-18T18:40:10.184Z,97240.39
2023-04-18T18:42:38.812Z,97238.83
2023-04-18T18:45:09.803Z,97241.30
2023-04-18T18:47:39.858Z,97240.52
2023-04-18T18:50:10.484Z,97240.83
2023-04-18T18:52:40.381Z,97242.17
2023-04-18T18:55:12.049Z,97243.63
2023-04-18T18:57:40.554Z,97243.40
2023-04-18T19:00:11.182Z,97246.31
2023-04-18T19:02:39.730Z,97235.89
2023-04-18T19:05:12.050Z,97238.58
2023-04-18T19:07:43.216Z,97239.05
2023-04-18T19:10:11.429Z,97242.17
2023-04-18T19:12:39.643Z,97238.92
2023-04-18T19:15:08.845Z,97237.92
2023-04-18T19:17:37.514Z,97234.45
2023-04-18T19:20:08.767Z,97233.76
2023-04-18T19:22:37.503Z,97235.89
2023-04-18T19:25:06.794Z,97234.86
2023-04-18T19:27:35.260Z,97237.80
2023-04-18T19:30:03.342Z,97235.89
2023-04-18T19:32:34.087Z,97232.06
2023-04-18T19:35:03.386Z,97230.41
2023-04-18T21:21:03.799Z,97180.47
2023-04-18T21:23:31.913Z,97180.34
2023-04-18T21:25:59.713Z,97178.88
2023-04-18T21:28:27.653Z,97179.72
2023-04-18T21:30:55.820Z,97180.37
2023-04-18T21:33:24.131Z,97178.11
2023-04-18T21:35:52.316Z,97170.56
2023-04-18T21:38:22.161Z,97171.47
2023-04-18T21:40:50.037Z,97169.66
2023-04-18T21:43:18.090Z,97173.55
2023-04-18T21:45:46.304Z,97172.30
2023-04-18T21:48:14.306Z,97169.48
2023-04-18T21:50:42.636Z,97172.73
2023-04-18T21:53:10.451Z,97169.03
2023-04-18T21:55:38.307Z,97164.53
2023-04-18T21:58:06.244Z,97169.44
2023-04-18T22:00:34.151Z,97166.52
2023-04-18T22:03:02.043Z,97166.52
2023-04-18T22:05:30.089Z,97168.99
2023-04-18T22:07:58.820Z,97165.05
2023-04-18T22:10:26.781Z,97166.39
2023-04-18T22:12:55.406Z,97161.91
2023-04-18T22:15:26.382Z,97162.45
2023-04-18T22:17:54.284Z,97151.25
2023-04-18T22:20:27.706Z,97153.94
2023-04-18T22:22:55.506Z,97150.70
2023-04-18T22:25:23.362Z,97152.91
2023-04-18T22:27:51.358Z,97150.00
2023-04-18T22:30:19.309Z,97155.94
2023-04-18T22:32:47.778Z,97151.13
2023-04-18T22:35:16.164Z,97149.78
2023-04-18T22:37:44.347Z,97148.99
2023-04-18T22:40:13.047Z,97139.90
2023-04-18T22:42:40.706Z,97143.15
2023-04-18T22:45:09.726Z,97136.21
2023-04-18T22:47:37.615Z,97137.77
2023-04-18T22:50:06.702Z,97141.80
2023-04-18T22:52:34.972Z,97137.77
2023-04-18T22:55:03.669Z,97135.65
2023-04-18T22:57:31.492Z,97140.45
2023-04-18T22:59:59.411Z,97135.30
2023-04-18T23:02:27.589Z,97136.99
2023-04-18T23:04:58.490Z,97131.62
2023-04-18T23:07:26.222Z,97137.77
2023-04-18T23:09:54.796Z,97130.84
2023-04-18T23:12:22.754Z,97123.08
2023-04-18T23:14:52.105Z,97121.20
2023-04-18T23:17:20.606Z,97112.45
2023-04-18T23:19:48.581Z,97112.20
2023-04-18T23:22:16.566Z,97111.42
2023-04-18T23:24:44.473Z,97106.61
2023-04-18T23:27:12.176Z,97104.48
2023-04-18T23:29:40.093Z,97097.20
2023-04-18T23:32:08.007Z,97093.27
2023-04-18T23:34:38.425Z,97095.73
2023-04-18T23:37:06.333Z,97085.07
2023-04-18T23:39:34.227Z,97086.98
2023-04-18T23:42:02.250Z,97094.25
2023-04-18T23:44:31.217Z,97091.56
2023-04-18T23:46:59.221Z,97085.63
2023-04-18T23:49:27.934Z,97090.70
2023-04-18T23:51:56.006Z,97080.82
2023-04-18T23:54:24.018Z,97082.16
2023-04-18T23:56:52.092Z,97078.91
2023-04-18T23:59:19.985Z,97076.23
